sensor_id;sensor_type;location;lat;lon;timestamp;P1;durP1;ratioP1;P2;durP2;ratioP2
10535;SDS011;5316;49.538;8.352;2022-12-07T00:00:18;9.53;;;7.20;;
10535;SDS011;5316;49.538;8.352;2022-12-07T00:02:45;7.80;;;6.77;;
10535;SDS011;5316;49.538;8.352;2022-12-07T00:05:12;9.43;;;7.33;;
10535;SDS011;5316;49.538;8.352;2022-12-07T00:07:39;8.87;;;7.20;;
10535;SDS011;5316;49.538;8.352;2022-12-07T00:10:07;9.60;;;6.83;;
10535;SDS011;5316;49.538;8.352;2022-12-07T00:12:34;10.00;;;7.87;;
10535;SDS011;5316;49.538;8.352;2022-12-07T00:15:01;9.90;;;6.97;;
10535;SDS011;5316;49.538;8.352;2022-12-07T00:17:29;7.97;;;6.83;;
10535;SDS011;5316;49.538;8.352;2022-12-07T00:19:55;8.97;;;6.93;;
10535;SDS011;5316;49.538;8.352;2022-12-07T00:22:22;7.30;;;6.60;;
10535;SDS011;5316;49.538;8.352;2022-12-07T00:24:49;7.30;;;6.60;;
10535;SDS011;5316;49.538;8.352;2022-12-07T00:27:17;7.37;;;6.63;;
10535;SDS011;5316;49.538;8.352;2022-12-07T00:29:44;7.83;;;6.83;;
10535;SDS011;5316;49.538;8.352;2022-12-07T00:32:10;7.17;;;6.13;;
10535;SDS011;5316;49.538;8.352;2022-12-07T00:34:37;8.93;;;6.60;;
10535;SDS011;5316;49.538;8.352;2022-12-07T00:37:04;7.77;;;6.43;;
10535;SDS011;5316;49.538;8.352;2022-12-07T00:39:31;7.37;;;6.60;;
10535;SDS011;5316;49.538;8.352;2022-12-07T00:41:57;8.10;;;6.80;;
10535;SDS011;5316;49.538;8.352;2022-12-07T00:44:25;7.93;;;6.50;;
10535;SDS011;5316;49.538;8.352;2022-12-07T00:46:52;6.40;;;5.80;;
10535;SDS011;5316;49.538;8.352;2022-12-07T00:49:20;7.60;;;6.57;;
10535;SDS011;5316;49.538;8.352;2022-12-07T00:51:47;7.47;;;6.40;;
10535;SDS011;5316;49.538;8.352;2022-12-07T00:54:14;9.57;;;6.83;;
10535;SDS011;5316;49.538;8.352;2022-12-07T00:56:42;8.87;;;6.50;;
10535;SDS011;5316;49.538;8.352;2022-12-07T00:59:10;8.23;;;6.43;;
10535;SDS011;5316;49.538;8.352;2022-12-07T01:01:41;9.23;;;6.47;;
10535;SDS011;5316;49.538;8.352;2022-12-07T01:04:08;7.47;;;6.73;;
10535;SDS011;5316;49.538;8.352;2022-12-07T01:06:34;8.30;;;6.87;;
10535;SDS011;5316;49.538;8.352;2022-12-07T01:09:02;9.60;;;6.97;;
10535;SDS011;5316;49.538;8.352;2022-12-07T01:11:29;9.30;;;6.70;;
10535;SDS011;5316;49.538;8.352;2022-12-07T01:13:57;8.33;;;7.03;;
10535;SDS011;5316;49.538;8.352;2022-12-07T01:16:25;8.67;;;6.83;;
10535;SDS011;5316;49.538;8.352;2022-12-07T01:18:55;8.07;;;6.67;;
10535;SDS011;5316;49.538;8.352;2022-12-07T01:21:23;8.97;;;6.67;;
10535;SDS011;5316;49.538;8.352;2022-12-07T01:23:52;7.03;;;5.73;;
10535;SDS011;5316;49.538;8.352;2022-12-07T01:26:22;9.10;;;7.47;;
10535;SDS011;5316;49.538;8.352;2022-12-07T01:28:50;9.10;;;7.03;;
10535;SDS011;5316;49.538;8.352;2022-12-07T01:31:20;10.17;;;7.60;;
10535;SDS011;5316;49.538;8.352;2022-12-07T01:33:49;10.83;;;7.80;;
10535;SDS011;5316;49.538;8.352;2022-12-07T01:36:19;9.80;;;7.60;;
10535;SDS011;5316;49.538;8.352;2022-12-07T01:38:48;10.40;;;7.03;;
10535;SDS011;5316;49.538;8.352;2022-12-07T01:41:17;9.77;;;7.40;;
10535;SDS011;5316;49.538;8.352;2022-12-07T01:44:09;9.40;;;7.13;;
10535;SDS011;5316;49.538;8.352;2022-12-07T01:46:38;8.83;;;7.00;;
10535;SDS011;5316;49.538;8.352;2022-12-07T01:49:05;10.27;;;7.40;;
10535;SDS011;5316;49.538;8.352;2022-12-07T01:51:37;8.03;;;7.23;;
10535;SDS011;5316;49.538;8.352;2022-12-07T01:54:06;8.33;;;6.87;;
10535;SDS011;5316;49.538;8.352;2022-12-07T01:56:33;7.27;;;6.47;;
10535;SDS011;5316;49.538;8.352;2022-12-07T01:59:01;8.77;;;6.70;;
10535;SDS011;5316;49.538;8.352;2022-12-07T02:01:28;11.17;;;7.00;;
10535;SDS011;5316;49.538;8.352;2022-12-07T02:03:54;8.30;;;7.13;;
10535;SDS011;5316;49.538;8.352;2022-12-07T02:06:22;7.40;;;6.70;;
10535;SDS011;5316;49.538;8.352;2022-12-07T02:08:53;8.90;;;6.63;;
10535;SDS011;5316;49.538;8.352;2022-12-07T02:11:20;7.37;;;6.43;;
10535;SDS011;5316;49.538;8.352;2022-12-07T02:13:47;9.67;;;6.70;;
10535;SDS011;5316;49.538;8.352;2022-12-07T02:16:18;8.30;;;6.47;;
10535;SDS011;5316;49.538;8.352;2022-12-07T02:18:56;8.90;;;6.87;;
10535;SDS011;5316;49.538;8.352;2022-12-07T02:21:38;9.20;;;6.73;;
10535;SDS011;5316;49.538;8.352;2022-12-07T02:24:15;8.93;;;6.57;;
10535;SDS011;5316;49.538;8.352;2022-12-07T02:27:11;7.90;;;6.17;;
10535;SDS011;5316;49.538;8.352;2022-12-07T02:29:56;7.77;;;6.90;;
10535;SDS011;5316;49.538;8.352;2022-12-07T02:32:27;7.77;;;6.97;;
10535;SDS011;5316;49.538;8.352;2022-12-07T02:35:04;8.00;;;6.83;;
10535;SDS011;5316;49.538;8.352;2022-12-07T02:37:37;6.50;;;5.90;;
10535;SDS011;5316;49.538;8.352;2022-12-07T02:40:09;7.10;;;6.37;;
10535;SDS011;5316;49.538;8.352;2022-12-07T02:42:41;7.10;;;6.17;;
10535;SDS011;5316;49.538;8.352;2022-12-07T02:45:15;7.07;;;6.03;;
10535;SDS011;5316;49.538;8.352;2022-12-07T02:47:46;6.10;;;5.43;;
10535;SDS011;5316;49.538;8.352;2022-12-07T02:50:17;6.43;;;5.77;;
10535;SDS011;5316;49.538;8.352;2022-12-07T02:52:45;6.67;;;5.97;;
10535;SDS011;5316;49.538;8.352;2022-12-07T02:55:12;6.10;;;5.50;;
10535;SDS011;5316;49.538;8.352;2022-12-07T02:57:45;6.43;;;5.83;;
10535;SDS011;5316;49.538;8.352;2022-12-07T03:00:22;5.90;;;5.30;;
10535;SDS011;5316;49.538;8.352;2022-12-07T03:02:53;6.77;;;5.53;;
10535;SDS011;5316;49.538;8.352;2022-12-07T03:05:29;6.20;;;5.07;;
10535;SDS011;5316;49.538;8.352;2022-12-07T03:08:11;5.43;;;5.00;;
10535;SDS011;5316;49.538;8.352;2022-12-07T03:10:47;5.47;;;4.70;;
10535;SDS011;5316;49.538;8.352;2022-12-07T03:13:22;5.87;;;5.33;;
10535;SDS011;5316;49.538;8.352;2022-12-07T03:15:53;6.23;;;5.50;;
10535;SDS011;5316;49.538;8.352;2022-12-07T03:18:24;5.93;;;5.37;;
10535;SDS011;5316;49.538;8.352;2022-12-07T03:20:54;5.83;;;5.20;;
10535;SDS011;5316;49.538;8.352;2022-12-07T03:23:24;6.90;;;5.50;;
10535;SDS011;5316;49.538;8.352;2022-12-07T03:25:53;5.43;;;4.93;;
10535;SDS011;5316;49.538;8.352;2022-12-07T03:28:25;6.10;;;5.47;;
10535;SDS011;5316;49.538;8.352;2022-12-07T03:30:59;6.70;;;5.57;;
10535;SDS011;5316;49.538;8.352;2022-12-07T03:33:31;6.67;;;5.50;;
10535;SDS011;5316;49.538;8.352;2022-12-07T03:36:04;6.93;;;5.87;;
10535;SDS011;5316;49.538;8.352;2022-12-07T03:38:35;6.30;;;5.60;;
10535;SDS011;5316;49.538;8.352;2022-12-07T03:41:06;6.53;;;5.67;;
10535;SDS011;5316;49.538;8.352;2022-12-07T03:43:38;6.70;;;5.77;;
10535;SDS011;5316;49.538;8.352;2022-12-07T03:46:11;7.17;;;6.17;;
10535;SDS011;5316;49.538;8.352;2022-12-07T03:48:45;6.27;;;5.53;;
10535;SDS011;5316;49.538;8.352;2022-12-07T03:51:19;7.37;;;6.00;;
10535;SDS011;5316;49.538;8.352;2022-12-07T03:53:51;6.13;;;5.50;;
10535;SDS011;5316;49.538;8.352;2022-12-07T03:56:21;6.37;;;5.57;;
10535;SDS011;5316;49.538;8.352;2022-12-07T03:58:48;7.50;;;5.60;;
10535;SDS011;5316;49.538;8.352;2022-12-07T04:01:18;6.50;;;5.73;;
10535;SDS011;5316;49.538;8.352;2022-12-07T04:03:45;5.73;;;5.10;;
10535;SDS011;5316;49.538;8.352;2022-12-07T04:06:12;7.87;;;5.90;;
10535;SDS011;5316;49.538;8.352;2022-12-07T04:08:39;6.63;;;5.70;;
10535;SDS011;5316;49.538;8.352;2022-12-07T04:11:07;8.10;;;6.23;;
10535;SDS011;5316;49.538;8.352;2022-12-07T04:13:33;5.87;;;5.27;;
10535;SDS011;5316;49.538;8.352;2022-12-07T04:16:22;6.57;;;5.80;;
10535;SDS011;5316;49.538;8.352;2022-12-07T04:18:48;6.47;;;5.33;;
10535;SDS011;5316;49.538;8.352;2022-12-07T04:21:15;6.50;;;5.27;;
10535;SDS011;5316;49.538;8.352;2022-12-07T04:23:42;6.80;;;6.07;;
10535;SDS011;5316;49.538;8.352;2022-12-07T04:26:09;8.00;;;6.20;;
10535;SDS011;5316;49.538;8.352;2022-12-07T04:28:36;6.93;;;5.97;;
10535;SDS011;5316;49.538;8.352;2022-12-07T04:31:02;7.77;;;6.90;;
10535;SDS011;5316;49.538;8.352;2022-12-07T04:33:30;10.30;;;6.53;;
10535;SDS011;5316;49.538;8.352;2022-12-07T04:35:57;10.03;;;6.27;;
10535;SDS011;5316;49.538;8.352;2022-12-07T04:38:34;7.73;;;6.07;;
10535;SDS011;5316;49.538;8.352;2022-12-07T04:41:03;6.90;;;5.97;;
10535;SDS011;5316;49.538;8.352;2022-12-07T04:43:31;8.20;;;7.03;;
10535;SDS011;5316;49.538;8.352;2022-12-07T04:45:58;7.13;;;5.97;;
10535;SDS011;5316;49.538;8.352;2022-12-07T04:48:25;7.30;;;6.50;;
10535;SDS011;5316;49.538;8.352;2022-12-07T04:50:53;8.20;;;6.90;;
10535;SDS011;5316;49.538;8.352;2022-12-07T04:53:20;8.23;;;7.03;;
10535;SDS011;5316;49.538;8.352;2022-12-07T04:55:47;8.07;;;6.13;;
10535;SDS011;5316;49.538;8.352;2022-12-07T04:58:14;8.27;;;6.73;;
10535;SDS011;5316;49.538;8.352;2022-12-07T05:00:41;8.10;;;7.20;;
10535;SDS011;5316;49.538;8.352;2022-12-07T05:03:07;8.03;;;7.10;;
10535;SDS011;5316;49.538;8.352;2022-12-07T05:05:34;7.70;;;6.90;;
10535;SDS011;5316;49.538;8.352;2022-12-07T05:08:03;7.73;;;6.80;;
10535;SDS011;5316;49.538;8.352;2022-12-07T05:10:29;7.17;;;6.30;;
10535;SDS011;5316;49.538;8.352;2022-12-07T05:12:56;6.93;;;6.23;;
10535;SDS011;5316;49.538;8.352;2022-12-07T05:15:23;8.23;;;6.33;;
10535;SDS011;5316;49.538;8.352;2022-12-07T05:17:49;10.77;;;8.70;;
10535;SDS011;5316;49.538;8.352;2022-12-07T05:20:17;8.10;;;6.53;;
10535;SDS011;5316;49.538;8.352;2022-12-07T05:22:44;7.90;;;6.53;;
10535;SDS011;5316;49.538;8.352;2022-12-07T05:25:12;7.60;;;6.10;;
10535;SDS011;5316;49.538;8.352;2022-12-07T05:27:39;6.93;;;6.20;;
10535;SDS011;5316;49.538;8.352;2022-12-07T05:30:06;8.33;;;6.53;;
10535;SDS011;5316;49.538;8.352;2022-12-07T05:32:34;6.73;;;6.03;;
10535;SDS011;5316;49.538;8.352;2022-12-07T05:35:00;8.60;;;7.03;;
10535;SDS011;5316;49.538;8.352;2022-12-07T05:37:27;8.00;;;7.03;;
10535;SDS011;5316;49.538;8.352;2022-12-07T05:39:54;16.97;;;12.53;;
10535;SDS011;5316;49.538;8.352;2022-12-07T05:42:22;8.20;;;6.60;;
10535;SDS011;5316;49.538;8.352;2022-12-07T05:44:49;6.27;;;5.67;;
10535;SDS011;5316;49.538;8.352;2022-12-07T05:47:16;6.93;;;5.60;;
10535;SDS011;5316;49.538;8.352;2022-12-07T05:49:43;6.00;;;5.30;;
10535;SDS011;5316;49.538;8.352;2022-12-07T05:52:10;5.83;;;5.00;;
10535;SDS011;5316;49.538;8.352;2022-12-07T05:54:38;7.33;;;6.10;;
10535;SDS011;5316;49.538;8.352;2022-12-07T05:57:05;7.87;;;5.83;;
10535;SDS011;5316;49.538;8.352;2022-12-07T05:59:34;12.77;;;9.77;;
10535;SDS011;5316;49.538;8.352;2022-12-07T06:02:01;11.63;;;8.00;;
10535;SDS011;5316;49.538;8.352;2022-12-07T06:04:29;8.23;;;6.60;;
10535;SDS011;5316;49.538;8.352;2022-12-07T06:06:58;7.00;;;5.50;;
10535;SDS011;5316;49.538;8.352;2022-12-07T06:09:25;6.70;;;5.97;;
10535;SDS011;5316;49.538;8.352;2022-12-07T06:11:53;8.73;;;6.03;;
10535;SDS011;5316;49.538;8.352;2022-12-07T06:14:51;8.40;;;6.17;;
10535;SDS011;5316;49.538;8.352;2022-12-07T06:17:17;7.07;;;5.90;;
10535;SDS011;5316;49.538;8.352;2022-12-07T06:19:44;7.67;;;5.90;;
10535;SDS011;5316;49.538;8.352;2022-12-07T06:22:11;7.73;;;5.70;;
10535;SDS011;5316;49.538;8.352;2022-12-07T06:24:38;10.10;;;6.77;;
10535;SDS011;5316;49.538;8.352;2022-12-07T06:27:05;8.37;;;5.90;;
10535;SDS011;5316;49.538;8.352;2022-12-07T06:29:32;8.83;;;6.57;;
10535;SDS011;5316;49.538;8.352;2022-12-07T06:32:01;7.67;;;6.73;;
10535;SDS011;5316;49.538;8.352;2022-12-07T06:34:29;7.83;;;6.87;;
10535;SDS011;5316;49.538;8.352;2022-12-07T06:36:56;9.67;;;6.40;;
10535;SDS011;5316;49.538;8.352;2022-12-07T06:39:24;7.97;;;6.40;;
10535;SDS011;5316;49.538;8.352;2022-12-07T06:41:51;9.53;;;7.00;;
10535;SDS011;5316;49.538;8.352;2022-12-07T06:44:19;8.40;;;7.30;;
10535;SDS011;5316;49.538;8.352;2022-12-07T06:46:47;13.37;;;8.43;;
10535;SDS011;5316;49.538;8.352;2022-12-07T06:49:16;8.60;;;7.70;;
10535;SDS011;5316;49.538;8.352;2022-12-07T06:51:44;7.73;;;6.80;;
10535;SDS011;5316;49.538;8.352;2022-12-07T06:54:13;8.53;;;6.87;;
10535;SDS011;5316;49.538;8.352;2022-12-07T06:56:40;10.47;;;8.13;;
10535;SDS011;5316;49.538;8.352;2022-12-07T06:59:08;11.40;;;7.83;;
10535;SDS011;5316;49.538;8.352;2022-12-07T07:01:35;8.40;;;7.57;;
10535;SDS011;5316;49.538;8.352;2022-12-07T07:04:02;9.77;;;7.93;;
10535;SDS011;5316;49.538;8.352;2022-12-07T07:06:31;11.17;;;8.37;;
10535;SDS011;5316;49.538;8.352;2022-12-07T07:08:58;10.10;;;8.03;;
10535;SDS011;5316;49.538;8.352;2022-12-07T07:11:24;12.57;;;8.80;;
10535;SDS011;5316;49.538;8.352;2022-12-07T07:13:51;9.60;;;7.60;;
10535;SDS011;5316;49.538;8.352;2022-12-07T07:16:18;10.27;;;7.57;;
10535;SDS011;5316;49.538;8.352;2022-12-07T07:18:45;11.23;;;8.23;;
10535;SDS011;5316;49.538;8.352;2022-12-07T07:21:12;8.50;;;7.60;;
10535;SDS011;5316;49.538;8.352;2022-12-07T07:23:40;9.67;;;7.83;;
10535;SDS011;5316;49.538;8.352;2022-12-07T07:26:07;10.17;;;7.90;;
10535;SDS011;5316;49.538;8.352;2022-12-07T07:28:34;9.50;;;7.13;;
10535;SDS011;5316;49.538;8.352;2022-12-07T07:31:00;9.57;;;6.90;;
10535;SDS011;5316;49.538;8.352;2022-12-07T07:33:27;7.80;;;7.00;;
10535;SDS011;5316;49.538;8.352;2022-12-07T07:35:54;9.13;;;7.27;;
10535;SDS011;5316;49.538;8.352;2022-12-07T07:38:21;8.70;;;7.80;;
10535;SDS011;5316;49.538;8.352;2022-12-07T07:40:49;12.37;;;9.90;;
10535;SDS011;5316;49.538;8.352;2022-12-07T07:43:16;16.20;;;11.73;;
10535;SDS011;5316;49.538;8.352;2022-12-07T07:45:43;12.97;;;9.17;;
10535;SDS011;5316;49.538;8.352;2022-12-07T07:48:10;10.23;;;8.30;;
10535;SDS011;5316;49.538;8.352;2022-12-07T07:50:37;12.30;;;9.00;;
10535;SDS011;5316;49.538;8.352;2022-12-07T07:53:04;12.20;;;8.93;;
10535;SDS011;5316;49.538;8.352;2022-12-07T07:55:31;10.83;;;8.73;;
10535;SDS011;5316;49.538;8.352;2022-12-07T07:57:59;11.67;;;8.37;;
10535;SDS011;5316;49.538;8.352;2022-12-07T08:00:26;11.40;;;9.07;;
10535;SDS011;5316;49.538;8.352;2022-12-07T08:02:53;10.27;;;8.57;;
10535;SDS011;5316;49.538;8.352;2022-12-07T08:05:19;13.53;;;8.80;;
10535;SDS011;5316;49.538;8.352;2022-12-07T08:07:46;15.60;;;8.97;;
10535;SDS011;5316;49.538;8.352;2022-12-07T08:10:13;11.83;;;8.27;;
10535;SDS011;5316;49.538;8.352;2022-12-07T08:12:41;9.70;;;8.47;;
10535;SDS011;5316;49.538;8.352;2022-12-07T08:15:29;9.60;;;8.57;;
10535;SDS011;5316;49.538;8.352;2022-12-07T08:17:57;9.03;;;7.80;;
10535;SDS011;5316;49.538;8.352;2022-12-07T08:20:24;10.00;;;7.53;;
10535;SDS011;5316;49.538;8.352;2022-12-07T08:22:51;8.60;;;7.70;;
10535;SDS011;5316;49.538;8.352;2022-12-07T08:25:17;10.53;;;7.83;;
10535;SDS011;5316;49.538;8.352;2022-12-07T08:27:44;12.23;;;8.37;;
10535;SDS011;5316;49.538;8.352;2022-12-07T08:30:11;10.43;;;7.90;;
10535;SDS011;5316;49.538;8.352;2022-12-07T08:32:39;13.47;;;9.07;;
10535;SDS011;5316;49.538;8.352;2022-12-07T08:35:07;11.67;;;7.87;;
10535;SDS011;5316;49.538;8.352;2022-12-07T08:37:34;9.07;;;7.60;;
10535;SDS011;5316;49.538;8.352;2022-12-07T08:40:01;9.20;;;7.77;;
10535;SDS011;5316;49.538;8.352;2022-12-07T08:42:28;8.13;;;7.30;;
10535;SDS011;5316;49.538;8.352;2022-12-07T08:45:03;10.40;;;8.10;;
10535;SDS011;5316;49.538;8.352;2022-12-07T08:47:31;9.87;;;7.63;;
10535;SDS011;5316;49.538;8.352;2022-12-07T08:50:01;9.37;;;7.60;;
10535;SDS011;5316;49.538;8.352;2022-12-07T08:52:29;12.67;;;8.97;;
10535;SDS011;5316;49.538;8.352;2022-12-07T08:54:56;8.93;;;7.63;;
10535;SDS011;5316;49.538;8.352;2022-12-07T08:57:24;17.83;;;12.67;;
10535;SDS011;5316;49.538;8.352;2022-12-07T08:59:53;33.33;;;21.83;;
10535;SDS011;5316;49.538;8.352;2022-12-07T09:02:20;15.47;;;9.73;;
10535;SDS011;5316;49.538;8.352;2022-12-07T09:04:47;11.67;;;8.97;;
10535;SDS011;5316;49.538;8.352;2022-12-07T09:07:15;12.57;;;9.43;;
10535;SDS011;5316;49.538;8.352;2022-12-07T09:09:42;11.50;;;9.00;;
10535;SDS011;5316;49.538;8.352;2022-12-07T09:12:08;14.07;;;8.97;;
10535;SDS011;5316;49.538;8.352;2022-12-07T09:14:36;23.00;;;9.60;;
10535;SDS011;5316;49.538;8.352;2022-12-07T09:17:06;48.57;;;12.70;;
10535;SDS011;5316;49.538;8.352;2022-12-07T09:19:33;17.93;;;8.93;;
10535;SDS011;5316;49.538;8.352;2022-12-07T09:22:00;17.27;;;9.20;;
10535;SDS011;5316;49.538;8.352;2022-12-07T09:24:29;50.67;;;29.70;;
10535;SDS011;5316;49.538;8.352;2022-12-07T09:26:55;13.17;;;9.83;;
10535;SDS011;5316;49.538;8.352;2022-12-07T09:29:22;12.00;;;10.00;;
10535;SDS011;5316;49.538;8.352;2022-12-07T09:31:50;8.10;;;7.30;;
10535;SDS011;5316;49.538;8.352;2022-12-07T09:34:17;9.43;;;7.20;;
10535;SDS011;5316;49.538;8.352;2022-12-07T09:36:43;7.83;;;6.93;;
10535;SDS011;5316;49.538;8.352;2022-12-07T09:39:10;8.67;;;7.60;;
10535;SDS011;5316;49.538;8.352;2022-12-07T09:41:39;10.47;;;7.43;;
10535;SDS011;5316;49.538;8.352;2022-12-07T09:44:10;9.63;;;7.30;;
10535;SDS011;5316;49.538;8.352;2022-12-07T09:46:39;11.10;;;7.03;;
10535;SDS011;5316;49.538;8.352;2022-12-07T09:49:09;8.43;;;7.43;;
10535;SDS011;5316;49.538;8.352;2022-12-07T09:51:40;8.37;;;6.53;;
10535;SDS011;5316;49.538;8.352;2022-12-07T09:54:07;8.57;;;7.67;;
10535;SDS011;5316;49.538;8.352;2022-12-07T09:56:39;9.13;;;7.00;;
10535;SDS011;5316;49.538;8.352;2022-12-07T09:59:10;8.57;;;7.10;;
10535;SDS011;5316;49.538;8.352;2022-12-07T10:01:42;11.63;;;7.47;;
10535;SDS011;5316;49.538;8.352;2022-12-07T10:04:11;10.27;;;6.90;;
10535;SDS011;5316;49.538;8.352;2022-12-07T10:06:41;8.27;;;7.20;;
10535;SDS011;5316;49.538;8.352;2022-12-07T10:09:09;9.43;;;7.07;;
10535;SDS011;5316;49.538;8.352;2022-12-07T10:14:32;8.97;;;6.60;;
10535;SDS011;5316;49.538;8.352;2022-12-07T10:17:01;8.43;;;6.70;;
10535;SDS011;5316;49.538;8.352;2022-12-07T10:19:29;9.47;;;7.37;;
10535;SDS011;5316;49.538;8.352;2022-12-07T10:21:59;8.63;;;6.53;;
10535;SDS011;5316;49.538;8.352;2022-12-07T10:24:31;7.70;;;6.97;;
10535;SDS011;5316;49.538;8.352;2022-12-07T10:26:58;9.70;;;7.00;;
10535;SDS011;5316;49.538;8.352;2022-12-07T10:29:28;10.30;;;6.67;;
10535;SDS011;5316;49.538;8.352;2022-12-07T10:31:57;7.77;;;6.20;;
10535;SDS011;5316;49.538;8.352;2022-12-07T10:34:26;10.93;;;7.37;;
10535;SDS011;5316;49.538;8.352;2022-12-07T10:37:06;9.07;;;6.27;;
10535;SDS011;5316;49.538;8.352;2022-12-07T10:39:41;8.33;;;6.43;;
10535;SDS011;5316;49.538;8.352;2022-12-07T10:42:15;7.70;;;6.90;;
10535;SDS011;5316;49.538;8.352;2022-12-07T10:44:45;8.73;;;6.60;;
10535;SDS011;5316;49.538;8.352;2022-12-07T10:47:16;7.30;;;5.97;;
10535;SDS011;5316;49.538;8.352;2022-12-07T10:50:07;7.77;;;6.23;;
10535;SDS011;5316;49.538;8.352;2022-12-07T10:55:58;9.13;;;6.37;;
10535;SDS011;5316;49.538;8.352;2022-12-07T10:58:48;7.70;;;6.37;;
10535;SDS011;5316;49.538;8.352;2022-12-07T11:01:23;9.40;;;6.27;;
10535;SDS011;5316;49.538;8.352;2022-12-07T11:03:58;8.37;;;6.17;;
10535;SDS011;5316;49.538;8.352;2022-12-07T11:06:42;7.23;;;6.10;;
10535;SDS011;5316;49.538;8.352;2022-12-07T11:09:29;7.43;;;5.73;;
10535;SDS011;5316;49.538;8.352;2022-12-07T11:12:20;5.70;;;3.80;;
10535;SDS011;5316;49.538;8.352;2022-12-07T11:14:55;7.23;;;4.00;;
10535;SDS011;5316;49.538;8.352;2022-12-07T11:17:30;5.40;;;3.90;;
10535;SDS011;5316;49.538;8.352;2022-12-07T11:20:12;3.93;;;3.43;;
10535;SDS011;5316;49.538;8.352;2022-12-07T11:22:44;5.80;;;3.57;;
10535;SDS011;5316;49.538;8.352;2022-12-07T11:25:19;4.50;;;3.40;;
10535;SDS011;5316;49.538;8.352;2022-12-07T11:27:58;5.60;;;3.57;;
10535;SDS011;5316;49.538;8.352;2022-12-07T11:30:38;6.10;;;4.30;;
10535;SDS011;5316;49.538;8.352;2022-12-07T11:33:17;7.40;;;4.37;;
10535;SDS011;5316;49.538;8.352;2022-12-07T11:35:52;5.83;;;4.20;;
10535;SDS011;5316;49.538;8.352;2022-12-07T11:38:31;5.67;;;3.70;;
10535;SDS011;5316;49.538;8.352;2022-12-07T11:41:08;5.10;;;3.77;;
10535;SDS011;5316;49.538;8.352;2022-12-07T11:43:42;5.17;;;3.87;;
10535;SDS011;5316;49.538;8.352;2022-12-07T11:46:22;5.77;;;4.07;;
10535;SDS011;5316;49.538;8.352;2022-12-07T11:48:54;5.80;;;4.17;;
10535;SDS011;5316;49.538;8.352;2022-12-07T11:51:28;6.10;;;4.30;;
10535;SDS011;5316;49.538;8.352;2022-12-07T11:54:00;6.67;;;4.53;;
10535;SDS011;5316;49.538;8.352;2022-12-07T11:56:29;7.67;;;4.40;;
10535;SDS011;5316;49.538;8.352;2022-12-07T11:59:02;11.30;;;7.77;;
10535;SDS011;5316;49.538;8.352;2022-12-07T12:01:39;6.07;;;4.70;;
10535;SDS011;5316;49.538;8.352;2022-12-07T12:04:19;6.47;;;5.00;;
10535;SDS011;5316;49.538;8.352;2022-12-07T12:06:55;5.07;;;3.93;;
10535;SDS011;5316;49.538;8.352;2022-12-07T12:09:23;4.30;;;3.07;;
10535;SDS011;5316;49.538;8.352;2022-12-07T12:11:59;4.80;;;3.20;;
10535;SDS011;5316;49.538;8.352;2022-12-07T12:14:42;4.10;;;2.93;;
10535;SDS011;5316;49.538;8.352;2022-12-07T12:17:21;3.70;;;3.23;;
10535;SDS011;5316;49.538;8.352;2022-12-07T12:20:13;11.67;;;3.50;;
10535;SDS011;5316;49.538;8.352;2022-12-07T12:22:46;6.60;;;3.63;;
10535;SDS011;5316;49.538;8.352;2022-12-07T12:25:18;5.77;;;3.53;;
10535;SDS011;5316;49.538;8.352;2022-12-07T12:27:48;3.87;;;2.63;;
10535;SDS011;5316;49.538;8.352;2022-12-07T12:30:29;3.67;;;2.97;;
10535;SDS011;5316;49.538;8.352;2022-12-07T12:33:06;5.43;;;3.07;;
10535;SDS011;5316;49.538;8.352;2022-12-07T12:35:41;4.70;;;3.20;;
10535;SDS011;5316;49.538;8.352;2022-12-07T12:38:25;5.87;;;3.40;;
10535;SDS011;5316;49.538;8.352;2022-12-07T12:40:55;3.43;;;2.90;;
10535;SDS011;5316;49.538;8.352;2022-12-07T12:43:42;2.97;;;2.60;;
10535;SDS011;5316;49.538;8.352;2022-12-07T12:55:24;3.67;;;2.60;;
10535;SDS011;5316;49.538;8.352;2022-12-07T13:04:14;5.67;;;2.50;;
10535;SDS011;5316;49.538;8.352;2022-12-07T13:06:48;4.60;;;2.60;;
10535;SDS011;5316;49.538;8.352;2022-12-07T13:09:24;5.07;;;2.53;;
10535;SDS011;5316;49.538;8.352;2022-12-07T13:11:59;4.00;;;2.80;;
10535;SDS011;5316;49.538;8.352;2022-12-07T13:14:51;2.70;;;2.20;;
10535;SDS011;5316;49.538;8.352;2022-12-07T13:23:29;3.67;;;2.40;;
10535;SDS011;5316;49.538;8.352;2022-12-07T13:26:03;4.13;;;2.67;;
10535;SDS011;5316;49.538;8.352;2022-12-07T13:28:37;6.30;;;2.90;;
10535;SDS011;5316;49.538;8.352;2022-12-07T13:31:13;3.97;;;2.00;;
10535;SDS011;5316;49.538;8.352;2022-12-07T13:33:56;4.10;;;2.27;;
10535;SDS011;5316;49.538;8.352;2022-12-07T13:36:24;3.73;;;2.03;;
10535;SDS011;5316;49.538;8.352;2022-12-07T13:38:53;3.20;;;1.97;;
10535;SDS011;5316;49.538;8.352;2022-12-07T13:41:22;2.87;;;2.23;;
10535;SDS011;5316;49.538;8.352;2022-12-07T13:43:53;3.93;;;1.97;;
10535;SDS011;5316;49.538;8.352;2022-12-07T13:46:29;3.70;;;2.10;;
10535;SDS011;5316;49.538;8.352;2022-12-07T13:49:14;2.57;;;1.90;;
10535;SDS011;5316;49.538;8.352;2022-12-07T13:51:44;3.07;;;2.00;;
10535;SDS011;5316;49.538;8.352;2022-12-07T13:54:11;6.00;;;2.67;;
10535;SDS011;5316;49.538;8.352;2022-12-07T13:56:40;3.47;;;2.40;;
10535;SDS011;5316;49.538;8.352;2022-12-07T13:59:12;3.57;;;2.60;;
10535;SDS011;5316;49.538;8.352;2022-12-07T14:01:40;6.47;;;2.60;;
10535;SDS011;5316;49.538;8.352;2022-12-07T14:04:28;3.37;;;2.17;;
10535;SDS011;5316;49.538;8.352;2022-12-07T14:07:01;4.60;;;2.00;;
10535;SDS011;5316;49.538;8.352;2022-12-07T14:09:52;8.00;;;2.97;;
10535;SDS011;5316;49.538;8.352;2022-12-07T14:12:20;6.20;;;2.10;;
10535;SDS011;5316;49.538;8.352;2022-12-07T14:14:49;2.83;;;2.00;;
10535;SDS011;5316;49.538;8.352;2022-12-07T14:17:17;4.17;;;2.50;;
10535;SDS011;5316;49.538;8.352;2022-12-07T14:19:48;3.80;;;2.40;;
10535;SDS011;5316;49.538;8.352;2022-12-07T14:22:24;4.57;;;2.20;;
10535;SDS011;5316;49.538;8.352;2022-12-07T14:25:00;2.77;;;2.40;;
10535;SDS011;5316;49.538;8.352;2022-12-07T14:27:37;4.03;;;2.77;;
10535;SDS011;5316;49.538;8.352;2022-12-07T14:30:14;4.17;;;2.13;;
10535;SDS011;5316;49.538;8.352;2022-12-07T14:32:42;4.87;;;2.23;;
10535;SDS011;5316;49.538;8.352;2022-12-07T14:35:13;7.77;;;2.70;;
10535;SDS011;5316;49.538;8.352;2022-12-07T14:37:44;4.97;;;2.10;;
10535;SDS011;5316;49.538;8.352;2022-12-07T14:40:12;4.13;;;2.40;;
10535;SDS011;5316;49.538;8.352;2022-12-07T14:42:41;3.23;;;2.30;;
10535;SDS011;5316;49.538;8.352;2022-12-07T14:45:14;4.63;;;2.40;;
10535;SDS011;5316;49.538;8.352;2022-12-07T14:47:42;8.10;;;2.90;;
10535;SDS011;5316;49.538;8.352;2022-12-07T14:50:11;4.67;;;2.80;;
10535;SDS011;5316;49.538;8.352;2022-12-07T14:52:38;6.70;;;2.90;;
10535;SDS011;5316;49.538;8.352;2022-12-07T14:55:11;5.10;;;2.93;;
10535;SDS011;5316;49.538;8.352;2022-12-07T15:29:20;4.27;;;2.87;;
10535;SDS011;5316;49.538;8.352;2022-12-07T15:31:48;5.03;;;2.77;;
10535;SDS011;5316;49.538;8.352;2022-12-07T15:34:15;4.73;;;2.97;;
10535;SDS011;5316;49.538;8.352;2022-12-07T15:36:42;5.83;;;2.90;;
10535;SDS011;5316;49.538;8.352;2022-12-07T15:39:12;3.87;;;2.60;;
10535;SDS011;5316;49.538;8.352;2022-12-07T15:41:41;3.57;;;2.40;;
10535;SDS011;5316;49.538;8.352;2022-12-07T15:44:09;3.00;;;2.67;;
10535;SDS011;5316;49.538;8.352;2022-12-07T15:46:56;5.77;;;2.80;;
10535;SDS011;5316;49.538;8.352;2022-12-07T15:49:23;4.40;;;2.53;;
10535;SDS011;5316;49.538;8.352;2022-12-07T15:51:50;4.80;;;2.20;;
10535;SDS011;5316;49.538;8.352;2022-12-07T15:54:18;6.63;;;2.57;;
10535;SDS011;5316;49.538;8.352;2022-12-07T15:56:47;3.17;;;2.80;;
10535;SDS011;5316;49.538;8.352;2022-12-07T15:59:14;4.47;;;2.87;;
10535;SDS011;5316;49.538;8.352;2022-12-07T16:01:42;3.97;;;2.20;;
10535;SDS011;5316;49.538;8.352;2022-12-07T16:04:10;3.27;;;2.30;;
10535;SDS011;5316;49.538;8.352;2022-12-07T16:06:37;3.53;;;2.33;;
10535;SDS011;5316;49.538;8.352;2022-12-07T16:09:05;2.70;;;2.50;;
10535;SDS011;5316;49.538;8.352;2022-12-07T16:11:32;5.20;;;2.80;;
10535;SDS011;5316;49.538;8.352;2022-12-07T16:13:59;3.57;;;2.53;;
10535;SDS011;5316;49.538;8.352;2022-12-07T16:16:26;6.37;;;2.63;;